createdAt,value
2018-02-05T00:02:02.140Z,2.24
2018-02-05T00:04:29.809Z,2.20
2018-02-05T00:06:57.409Z,2.28
2018-02-05T00:09:24.976Z,2.28
2018-02-05T00:11:52.542Z,2.29
2018-02-05T00:14:20.072Z,2.29
2018-02-05T00:16:47.607Z,2.28
2018-02-05T00:19:15.163Z,2.32
2018-02-05T00:21:42.936Z,2.28
2018-02-05T00:24:10.510Z,2.28
2018-02-05T00:26:38.364Z,2.25
2018-02-05T00:29:05.884Z,2.34
2018-02-05T00:31:33.504Z,2.24
2018-02-05T00:34:01.043Z,2.30
2018-02-05T00:36:28.557Z,2.29
2018-02-05T00:38:56.103Z,2.28
2018-02-05T00:41:23.862Z,2.19
2018-02-05T00:43:51.686Z,2.27
2018-02-05T00:46:19.213Z,2.27
2018-02-05T00:48:46.977Z,2.32
2018-02-05T00:51:14.519Z,2.28
2018-02-05T00:53:42.146Z,2.23
2018-02-05T00:56:09.682Z,2.36
2018-02-05T00:58:37.193Z,2.37
2018-02-05T01:01:04.756Z,2.46
2018-02-05T01:03:32.286Z,2.41
2018-02-05T01:05:59.878Z,2.44
2018-02-05T01:08:27.534Z,2.34
2018-02-05T01:10:55.097Z,2.31
2018-02-05T01:13:22.626Z,2.35
2018-02-05T01:15:50.155Z,2.36
2018-02-05T01:18:17.715Z,2.32
2018-02-05T01:20:45.321Z,2.45
2018-02-05T01:23:12.867Z,2.42
2018-02-05T01:25:40.421Z,2.37
2018-02-05T01:28:08.403Z,2.40
2018-02-05T01:30:36.010Z,2.48
2018-02-05T01:33:03.536Z,2.43
2018-02-05T01:35:31.303Z,2.35
2018-02-05T01:37:58.859Z,2.28
2018-02-05T01:40:26.386Z,2.43
2018-02-05T01:42:53.917Z,2.39
2018-02-05T01:45:21.478Z,2.31
2018-02-05T01:47:49.039Z,2.28
2018-02-05T01:50:16.628Z,2.27
2018-02-05T01:52:44.166Z,2.46
2018-02-05T01:55:11.784Z,2.44
2018-02-05T01:57:39.321Z,2.42
2018-02-05T02:00:07.407Z,2.38
2018-02-05T02:02:35.010Z,2.43
2018-02-05T02:05:02.557Z,2.47
2018-02-05T02:07:30.121Z,2.40
2018-02-05T02:09:57.732Z,2.33
2018-02-05T02:12:25.270Z,2.44
2018-02-05T02:14:53.076Z,2.39
2018-02-05T02:17:20.661Z,2.36
2018-02-05T02:19:48.284Z,2.37
2018-02-05T02:22:15.855Z,2.37
2018-02-05T02:24:43.411Z,2.49
2018-02-05T02:27:10.938Z,2.41
2018-02-05T02:29:38.468Z,2.35
2018-02-05T02:32:06.019Z,2.34
2018-02-05T02:34:33.570Z,2.46
2018-02-05T02:37:01.136Z,2.48
2018-02-05T02:39:28.680Z,2.40
2018-02-05T02:41:56.247Z,2.31
2018-02-05T02:44:23.793Z,2.36
2018-02-05T02:46:51.356Z,2.27
2018-02-05T02:49:18.908Z,2.26
2018-02-05T02:51:46.428Z,2.32
2018-02-05T02:54:13.961Z,2.23
2018-02-05T02:56:41.534Z,2.21
2018-02-05T02:59:09.166Z,2.32
2018-02-05T03:01:36.753Z,2.33
2018-02-05T03:04:04.288Z,2.32
2018-02-05T03:06:31.809Z,2.24
2018-02-05T03:08:59.725Z,2.20
2018-02-05T03:11:27.285Z,2.33
2018-02-05T03:13:54.798Z,2.27
2018-02-05T03:16:22.723Z,2.17
2018-02-05T03:18:50.254Z,2.16
2018-02-05T03:21:17.811Z,2.09
2018-02-05T03:23:45.420Z,2.14
2018-02-05T03:26:13.238Z,2.09
2018-02-05T03:28:40.900Z,2.12
2018-02-05T03:31:08.456Z,2.10
2018-02-05T03:33:35.991Z,2.07
2018-02-05T03:36:03.596Z,2.05
2018-02-05T03:38:31.105Z,2.00
2018-02-05T03:40:58.939Z,2.08
2018-02-05T03:43:26.504Z,2.08
2018-02-05T03:45:54.052Z,2.09
2018-02-05T03:48:21.582Z,2.12
2018-02-05T03:50:49.113Z,2.13
2018-02-05T03:53:16.714Z,2.01
2018-02-05T03:55:44.260Z,1.91
2018-02-05T03:58:11.802Z,1.88
2018-02-05T04:00:39.376Z,1.99
2018-02-05T04:03:06.936Z,1.95
2018-02-05T04:05:34.741Z,1.98
2018-02-05T04:08:02.332Z,2.07
2018-02-05T04:10:29.873Z,2.05
2018-02-05T04:12:57.409Z,1.99
2018-02-05T04:15:24.997Z,1.91
2018-02-05T04:17:52.533Z,1.90
2018-02-05T04:20:20.080Z,1.86
2018-02-05T04:22:47.632Z,1.83
2018-02-05T04:25:15.166Z,1.85
2018-02-05T04:27:42.727Z,1.80
2018-02-05T04:30:10.381Z,1.83
2018-02-05T04:32:37.921Z,1.77
2018-02-05T04:35:05.571Z,1.85
2018-02-05T04:37:33.444Z,1.73
2018-02-05T04:40:01.005Z,1.73
2018-02-05T04:42:28.586Z,1.83
2018-02-05T04:44:56.096Z,1.83
2018-02-05T04:47:23.648Z,1.79
2018-02-05T04:49:51.228Z,1.78
2018-02-05T04:52:18.808Z,1.80
2018-02-05T04:54:46.328Z,1.72
2018-02-05T04:57:13.869Z,1.68
2018-02-05T04:59:41.420Z,1.69
2018-02-05T05:02:09.005Z,1.69
2018-02-05T05:04:36.607Z,1.65
2018-02-05T05:07:04.160Z,1.63
2018-02-05T05:09:31.775Z,1.55
2018-02-05T05:11:59.320Z,1.53
2018-02-05T05:14:26.865Z,1.52
2018-02-05T05:16:54.386Z,1.42
2018-02-05T05:19:21.983Z,1.47
2018-02-05T05:21:49.577Z,1.39
2018-02-05T05:24:17.104Z,1.33
2018-02-05T05:26:44.672Z,1.34
2018-02-05T05:29:12.213Z,1.33
2018-02-05T05:31:39.764Z,1.35
2018-02-05T05:34:07.350Z,1.36
2018-02-05T05:36:35.270Z,1.35
2018-02-05T05:39:02.838Z,1.28
2018-02-05T05:41:30.401Z,1.22
2018-02-05T05:43:58.199Z,1.24
2018-02-05T05:46:25.715Z,1.30
2018-02-05T05:48:53.287Z,1.25
2018-02-05T05:51:21.082Z,1.19
2018-02-05T05:53:48.597Z,1.31
2018-02-05T05:56:16.202Z,1.28
2018-02-05T05:58:43.764Z,1.32
2018-02-05T06:01:11.321Z,1.38
2018-02-05T06:03:38.880Z,1.30
2018-02-05T06:06:07.122Z,1.26
2018-02-05T06:08:34.718Z,1.32
2018-02-05T06:11:02.242Z,1.29
2018-02-05T06:13:29.790Z,1.33
2018-02-05T06:15:57.350Z,1.25
2018-02-05T06:18:24.877Z,1.30
2018-02-05T06:20:52.405Z,1.32
2018-02-05T06:23:20.010Z,1.21
2018-02-05T06:25:47.537Z,1.28
2018-02-05T06:28:17.594Z,1.24
2018-02-05T06:30:45.118Z,1.24
2018-02-05T06:33:12.694Z,1.27
2018-02-05T06:35:40.237Z,1.23
2018-02-05T06:38:08.114Z,1.17
2018-02-05T06:40:35.646Z,1.13
2018-02-05T06:43:03.196Z,1.15
2018-02-05T06:45:30.756Z,1.10
2018-02-05T06:47:58.397Z,1.07
2018-02-05T06:50:37.715Z,1.18
2018-02-05T06:53:17.097Z,1.18
2018-02-05T06:55:47.619Z,1.23
2018-02-05T06:58:15.183Z,1.24
2018-02-05T07:00:43.090Z,1.20
2018-02-05T07:03:10.637Z,1.14
2018-02-05T07:05:38.222Z,1.14
2018-02-05T07:08:05.749Z,1.21
2018-02-05T07:10:33.318Z,1.22
2018-02-05T07:13:00.866Z,1.19
2018-02-05T07:15:28.397Z,1.21
2018-02-05T07:17:55.982Z,1.24
2018-02-05T07:20:23.884Z,1.39
2018-02-05T07:22:51.414Z,1.35
2018-02-05T07:25:18.996Z,1.31
2018-02-05T07:27:46.625Z,1.38
2018-02-05T07:30:14.156Z,1.46
2018-02-05T07:32:41.699Z,1.52
2018-02-05T07:35:09.220Z,1.57
2018-02-05T07:37:36.894Z,1.69
2018-02-05T07:40:04.569Z,1.80
2018-02-05T07:42:32.100Z,1.84
2018-02-05T07:44:59.685Z,1.89
2018-02-05T07:47:27.671Z,1.94
2018-02-05T07:49:55.291Z,1.99
2018-02-05T07:52:22.849Z,1.80
2018-02-05T07:54:50.414Z,1.88
2018-02-05T07:57:18.664Z,1.79
2018-02-05T07:59:46.209Z,1.86
2018-02-05T08:02:13.725Z,1.89
2018-02-05T08:04:41.324Z,1.83
2018-02-05T08:07:08.849Z,1.89
2018-02-05T08:09:36.400Z,1.95
2018-02-05T08:12:03.947Z,2.00
2018-02-05T08:14:31.768Z,2.05
2018-02-05T08:16:59.334Z,2.02
2018-02-05T08:19:27.190Z,2.09
2018-02-05T08:21:54.734Z,2.12
2018-02-05T08:24:22.297Z,2.08
2018-02-05T08:26:49.851Z,2.15
2018-02-05T08:29:17.740Z,2.13
2018-02-05T08:31:45.299Z,2.14
2018-02-05T08:34:12.858Z,2.21
2018-02-05T08:36:40.622Z,2.19
2018-02-05T08:39:08.490Z,2.26
2018-02-05T08:41:36.086Z,2.32
2018-02-05T08:44:03.632Z,2.42
2018-02-05T08:46:31.149Z,2.31
2018-02-05T08:48:58.750Z,2.37
2018-02-05T08:51:26.282Z,2.42
2018-02-05T08:53:53.899Z,2.43
2018-02-05T08:56:21.461Z,2.50
2018-02-05T08:58:49.047Z,2.47
2018-02-05T09:01:16.858Z,2.43
2018-02-05T09:03:44.476Z,2.46
2018-02-05T09:06:12.166Z,2.49
2018-02-05T09:08:40.048Z,2.67
2018-02-05T09:11:07.716Z,2.72
2018-02-05T09:13:35.278Z,2.82
2018-02-05T09:16:02.853Z,2.98
2018-02-05T09:18:30.398Z,2.97
2018-02-05T09:20:57.925Z,2.80
2018-02-05T09:23:25.491Z,2.95
2018-02-05T09:25:53.033Z,3.04
2018-02-05T09:28:20.734Z,2.98
2018-02-05T09:30:48.367Z,2.70
2018-02-05T09:33:16.699Z,2.67
2018-02-05T09:35:44.537Z,2.61
2018-02-05T09:38:12.121Z,2.44
2018-02-05T09:40:39.764Z,2.41
2018-02-05T09:43:07.951Z,2.18
2018-02-05T09:45:35.540Z,2.27
2018-02-05T09:48:03.176Z,2.28
2018-02-05T09:50:30.723Z,2.23
2018-02-05T09:52:58.246Z,2.21
2018-02-05T09:55:25.827Z,2.14
2018-02-05T09:57:53.355Z,2.21
2018-02-05T10:00:20.903Z,2.04
2018-02-05T10:02:48.454Z,2.03
2018-02-05T10:05:15.987Z,2.04
2018-02-05T10:07:43.858Z,2.06
2018-02-05T10:10:11.402Z,2.25
2018-02-05T10:12:39.673Z,2.28
2018-02-05T10:15:07.295Z,2.34
2018-02-05T10:17:34.877Z,2.38
2018-02-05T10:20:02.425Z,2.13
2018-02-05T10:22:30.579Z,2.22
2018-02-05T10:24:58.438Z,2.27
2018-02-05T10:27:26.198Z,2.28
2018-02-05T10:29:54.154Z,2.41
2018-02-05T10:32:21.935Z,2.40
2018-02-05T10:34:50.747Z,2.38
2018-02-05T10:37:18.395Z,2.44
2018-02-05T10:39:45.992Z,2.57
2018-02-05T10:42:13.629Z,2.67
2018-02-05T10:44:41.196Z,2.83
2018-02-05T10:47:08.747Z,2.87
2018-02-05T10:49:36.389Z,3.20
2018-02-05T10:52:03.965Z,3.38
2018-02-05T10:54:31.552Z,3.57
2018-02-05T10:56:59.245Z,3.69
2018-02-05T10:59:26.829Z,3.83
2018-02-05T11:01:54.704Z,3.95
2018-02-05T11:04:22.302Z,4.04
2018-02-05T11:06:49.847Z,4.06
2018-02-05T11:09:17.383Z,4.09
2018-02-05T11:11:44.994Z,4.09
2018-02-05T11:14:12.568Z,4.08
2018-02-05T11:16:40.104Z,4.07
2018-02-05T11:19:07.632Z,3.80
2018-02-05T11:21:35.152Z,3.67
2018-02-05T11:24:02.699Z,3.93
2018-02-05T11:26:30.505Z,3.97
2018-02-05T11:28:58.045Z,4.13
2018-02-05T11:31:25.595Z,4.08
2018-02-05T11:33:53.122Z,3.79
2018-02-05T11:36:20.851Z,3.75
2018-02-05T11:38:48.828Z,3.76
2018-02-05T11:41:16.487Z,3.79
2018-02-05T11:43:44.120Z,3.71
2018-02-05T11:46:11.718Z,3.65
2018-02-05T11:48:39.325Z,3.63
2018-02-05T11:51:06.882Z,3.45
2018-02-05T11:53:34.408Z,3.37
2018-02-05T11:56:01.949Z,3.30
2018-02-05T11:58:29.477Z,3.16
2018-02-05T12:00:57.054Z,3.15
2018-02-05T12:03:24.673Z,3.11
2018-02-05T12:05:52.329Z,3.21
2018-02-05T12:08:20.158Z,3.23
2018-02-05T12:10:47.703Z,3.35
2018-02-05T12:13:15.594Z,3.37
2018-02-05T12:15:43.230Z,3.25
2018-02-05T12:18:10.873Z,2.94
2018-02-05T12:20:38.606Z,2.68
2018-02-05T12:23:06.190Z,2.61
2018-02-05T12:25:34.011Z,2.55
2018-02-05T12:28:01.568Z,2.54
2018-02-05T12:30:30.023Z,2.55
2018-02-05T12:32:57.572Z,2.37
2018-02-05T12:35:25.122Z,2.34
2018-02-05T12:37:52.700Z,2.33
2018-02-05T12:40:20.241Z,2.36
2018-02-05T12:42:47.800Z,2.39
2018-02-05T12:45:15.359Z,2.42
2018-02-05T12:47:42.994Z,2.29
2018-02-05T12:50:10.551Z,2.29
2018-02-05T12:52:38.223Z,2.31
2018-02-05T12:55:06.168Z,2.25
2018-02-05T12:57:33.734Z,2.38
2018-02-05T13:00:06.803Z,2.38
2018-02-05T13:02:34.619Z,2.41
2018-02-05T13:07:59.557Z,2.49
2018-02-05T13:10:27.096Z,2.44
2018-02-05T13:12:54.934Z,2.46
2018-02-05T13:15:22.485Z,2.46
2018-02-05T13:17:50.289Z,2.59
2018-02-05T13:20:17.865Z,2.59
2018-02-05T13:22:45.425Z,2.59
2018-02-05T13:25:12.976Z,2.60
2018-02-05T13:27:40.536Z,2.70
2018-02-05T13:30:08.054Z,2.69
2018-02-05T13:32:35.614Z,2.73
2018-02-05T13:35:03.170Z,2.89
2018-02-05T13:37:30.725Z,2.93
2018-02-05T13:39:58.261Z,3.03
2018-02-05T13:42:25.833Z,3.10
2018-02-05T13:44:53.394Z,3.18
2018-02-05T13:47:20.943Z,3.30
2018-02-05T13:49:48.755Z,3.45
2018-02-05T13:52:16.634Z,3.35
2018-02-05T13:54:44.149Z,3.31
2018-02-05T13:57:11.690Z,3.04
2018-02-05T13:59:39.231Z,2.92
2018-02-05T14:02:07.076Z,2.81
2018-02-05T14:04:34.672Z,2.71
2018-02-05T14:07:02.242Z,2.66
2018-02-05T14:09:29.764Z,2.64
2018-02-05T14:11:57.304Z,2.68
2018-02-05T14:14:24.838Z,2.65
2018-02-05T14:16:52.428Z,2.62
2018-02-05T14:19:20.306Z,2.61
2018-02-05T14:21:48.175Z,2.51
2018-02-05T14:24:15.771Z,2.57
2018-02-05T14:26:43.287Z,2.60
2018-02-05T14:29:10.863Z,2.58
2018-02-05T14:31:38.391Z,2.54
2018-02-05T14:34:05.955Z,2.57
2018-02-05T14:36:33.506Z,2.43
2018-02-05T14:39:01.040Z,2.27
2018-02-05T14:41:28.559Z,2.30
2018-02-05T14:43:56.119Z,2.28
2018-02-05T14:46:23.715Z,2.37
2018-02-05T14:48:51.257Z,2.35
2018-02-05T14:51:18.810Z,2.18
2018-02-05T14:53:46.385Z,2.20
2018-02-05T14:56:14.217Z,2.18
2018-02-05T14:58:41.790Z,2.20
2018-02-05T15:01:09.305Z,2.29
2018-02-05T15:03:36.856Z,2.25
2018-02-05T15:06:04.413Z,2.26
2018-02-05T15:08:31.940Z,2.18
2018-02-05T15:10:59.798Z,2.21
2018-02-05T15:13:27.333Z,2.09
2018-02-05T15:15:54.872Z,2.05
2018-02-05T15:18:22.498Z,2.07
2018-02-05T15:20:50.026Z,1.99
2018-02-05T15:23:17.575Z,1.97
2018-02-05T15:25:45.490Z,1.80
2018-02-05T15:28:13.011Z,1.83
2018-02-05T15:30:40.609Z,1.76
2018-02-05T15:33:08.196Z,1.69
2018-02-05T15:35:35.749Z,1.67
2018-02-05T15:38:03.279Z,1.63
2018-02-05T15:40:30.850Z,1.59
2018-02-05T15:42:58.510Z,1.58
2018-02-05T15:45:26.065Z,1.52
2018-02-05T15:47:53.601Z,1.52
2018-02-05T15:50:21.181Z,1.48
2018-02-05T15:52:48.722Z,1.52
2018-02-05T15:55:16.270Z,1.48
2018-02-05T15:57:43.856Z,1.41
2018-02-05T16:00:11.450Z,1.45
2018-02-05T16:02:38.953Z,1.41
2018-02-05T16:05:06.547Z,1.44
2018-02-05T16:07:34.079Z,1.42
2018-02-05T16:10:01.623Z,1.37
2018-02-05T16:12:29.184Z,1.38
2018-02-05T16:14:56.726Z,1.39
2018-02-05T16:17:24.326Z,1.39
2018-02-05T16:19:51.912Z,1.39
2018-02-05T16:22:19.472Z,1.37
2018-02-05T16:24:47.009Z,1.36
2018-02-05T16:27:14.678Z,1.32
2018-02-05T16:29:42.290Z,1.21
2018-02-05T16:32:10.118Z,1.21
2018-02-05T16:34:37.689Z,1.22
2018-02-05T16:37:05.238Z,1.19
2018-02-05T16:39:32.799Z,1.16
2018-02-05T16:42:00.577Z,1.06
2018-02-05T16:44:28.529Z,1.00
2018-02-05T16:46:56.090Z,0.96
2018-02-05T16:49:23.642Z,0.92
2018-02-05T16:51:51.189Z,0.97
2018-02-05T16:54:18.830Z,0.98
2018-02-05T16:56:46.358Z,1.00
2018-02-05T16:59:13.888Z,0.96
2018-02-05T17:01:41.425Z,0.90
2018-02-05T17:04:09.050Z,0.87
2018-02-05T17:06:36.596Z,0.88
2018-02-05T17:09:04.491Z,0.88
2018-02-05T17:11:32.095Z,0.89
2018-02-05T17:13:59.625Z,0.87
2018-02-05T17:16:27.317Z,0.89
2018-02-05T17:18:54.856Z,0.88
2018-02-05T17:21:22.489Z,0.80
2018-02-05T17:23:50.056Z,0.79
2018-02-05T17:26:17.629Z,0.76
2018-02-05T17:28:45.217Z,0.78
2018-02-05T17:31:12.793Z,0.77
2018-02-05T17:33:40.338Z,0.78
2018-02-05T17:36:07.890Z,0.75
2018-02-05T17:38:35.440Z,0.76
2018-02-05T17:41:03.025Z,0.78
2018-02-05T17:43:30.566Z,0.81
2018-02-05T17:45:58.137Z,0.76
2018-02-05T17:48:25.766Z,0.67
2018-02-05T17:50:53.330Z,0.63
2018-02-05T17:53:20.875Z,0.59
2018-02-05T17:55:48.500Z,0.61
2018-02-05T17:58:16.071Z,0.60
2018-02-05T18:00:44.489Z,0.63
2018-02-05T18:03:12.320Z,0.59
2018-02-05T18:05:39.869Z,0.63
2018-02-05T18:08:07.424Z,0.62
2018-02-05T18:10:35.504Z,0.62
2018-02-05T18:13:03.495Z,0.56
2018-02-05T18:15:31.030Z,0.52
2018-02-05T18:17:58.609Z,0.66
2018-02-05T18:20:26.474Z,0.65
2018-02-05T18:22:54.038Z,0.60
2018-02-05T18:25:21.574Z,0.58
2018-02-05T18:27:49.230Z,0.55
2018-02-05T18:30:17.027Z,0.64
2018-02-05T18:32:44.570Z,0.63
2018-02-05T18:35:12.189Z,0.55
2018-02-05T18:37:39.735Z,0.49
2018-02-05T18:40:07.414Z,0.45
2018-02-05T18:42:35.244Z,0.50
2018-02-05T18:45:03.124Z,0.54
2018-02-05T18:47:30.698Z,0.56
2018-02-05T18:49:58.248Z,0.55
2018-02-05T18:52:25.818Z,0.52
2018-02-05T18:54:53.421Z,0.53
2018-02-05T18:57:21.211Z,0.43
2018-02-05T18:59:48.795Z,0.50
2018-02-05T19:02:21.248Z,0.42
2018-02-05T19:04:48.881Z,0.54
2018-02-05T19:07:16.394Z,0.45
2018-02-05T19:09:43.914Z,0.47
2018-02-05T19:12:11.474Z,0.43
2018-02-05T19:14:39.014Z,0.47
2018-02-05T19:17:06.625Z,0.39
2018-02-05T19:19:34.184Z,0.42
2018-02-05T19:22:01.747Z,0.39
2018-02-05T19:24:29.439Z,0.36
2018-02-05T19:26:57.092Z,0.33
2018-02-05T19:29:24.627Z,0.29
2018-02-05T19:31:52.258Z,0.31
2018-02-05T19:34:19.906Z,0.32
2018-02-05T19:36:47.502Z,0.37
2018-02-05T19:39:15.038Z,0.30
2018-02-05T19:41:42.619Z,0.25
2018-02-05T19:44:10.186Z,0.28
2018-02-05T19:46:37.792Z,0.34
2018-02-05T19:49:05.351Z,0.30
2018-02-05T19:51:32.899Z,0.26
2018-02-05T19:54:00.461Z,0.25
2018-02-05T19:56:28.022Z,0.31
2018-02-05T19:58:55.532Z,0.34
2018-02-05T20:01:23.324Z,0.31
2018-02-05T20:03:50.867Z,0.28
2018-02-05T20:06:18.390Z,0.22
2018-02-05T20:08:45.955Z,0.23
2018-02-05T20:11:13.771Z,0.19
2018-02-05T20:13:41.639Z,0.18
2018-02-05T20:16:09.210Z,0.26
2018-02-05T20:18:36.800Z,0.20
2018-02-05T20:21:04.363Z,0.21
2018-02-05T20:23:32.193Z,0.12
2018-02-05T20:25:59.768Z,0.13
2018-02-05T20:28:27.319Z,0.12
2018-02-05T20:30:54.869Z,0.05
2018-02-05T20:33:22.471Z,0.02
2018-02-05T20:35:50.018Z,-0.01
2018-02-05T20:38:17.629Z,-0.01
2018-02-05T20:40:45.621Z,-0.01
2018-02-05T20:43:13.173Z,-0.01
2018-02-05T20:45:40.782Z,-0.01
2018-02-05T20:48:08.334Z,-0.05
2018-02-05T20:50:35.931Z,0.00
2018-02-05T20:53:03.504Z,0.00
2018-02-05T20:55:31.291Z,0.00
2018-02-05T20:57:58.889Z,-0.05
2018-02-05T21:00:26.470Z,-0.09
2018-02-05T21:02:54.058Z,-0.09
2018-02-05T21:05:21.620Z,-0.17
2018-02-05T21:07:49.194Z,-0.17
2018-02-05T21:10:16.825Z,-0.15
2018-02-05T21:12:44.933Z,-0.16
2018-02-05T21:15:12.898Z,-0.17
2018-02-05T21:17:40.563Z,-0.17
2018-02-05T21:20:08.181Z,-0.18
2018-02-05T21:22:36.809Z,-0.19
2018-02-05T21:25:04.824Z,-0.19
2018-02-05T21:27:32.383Z,-0.18
2018-02-05T21:29:59.910Z,-0.20
2018-02-05T21:32:27.528Z,-0.22
2018-02-05T21:34:55.074Z,-0.17
2018-02-05T21:37:22.630Z,-0.20
2018-02-05T21:39:50.632Z,-0.22
2018-02-05T21:42:18.427Z,-0.19
2018-02-05T21:44:46.177Z,-0.19
2018-02-05T21:47:13.745Z,-0.20
2018-02-05T21:49:41.289Z,-0.19
2018-02-05T21:52:08.821Z,-0.17
2018-02-05T21:54:36.456Z,-0.22
2018-02-05T21:57:04.082Z,-0.25
2018-02-05T21:59:31.930Z,-0.25
2018-02-05T22:01:59.841Z,-0.27
2018-02-05T22:04:27.447Z,-0.24
2018-02-05T22:06:55.004Z,-0.29
2018-02-05T22:09:22.593Z,-0.29
2018-02-05T22:11:50.141Z,-0.29
2018-02-05T22:14:18.060Z,-0.30
2018-02-05T22:16:45.651Z,-0.32
2018-02-05T22:19:13.289Z,-0.32
2018-02-05T22:21:40.903Z,-0.30
2018-02-05T22:24:08.472Z,-0.30
2018-02-05T22:26:36.006Z,-0.32
2018-02-05T22:29:03.632Z,-0.30
2018-02-05T22:31:31.158Z,-0.30
2018-02-05T22:33:58.805Z,-0.25
2018-02-05T22:36:26.411Z,-0.29
2018-02-05T22:38:53.932Z,-0.32
2018-02-05T22:41:21.523Z,-0.33
2018-02-05T22:43:49.063Z,-0.36
2018-02-05T22:46:16.853Z,-0.37
2018-02-05T22:48:44.476Z,-0.38
2018-02-05T22:51:12.015Z,-0.41
2018-02-05T22:53:39.593Z,-0.39
2018-02-05T22:56:07.135Z,-0.41
2018-02-05T22:58:34.781Z,-0.43
2018-02-05T23:01:03.067Z,-0.44
2018-02-05T23:03:30.622Z,-0.45
2018-02-05T23:05:58.149Z,-0.46
2018-02-05T23:08:25.899Z,-0.50
2018-02-05T23:10:53.422Z,-0.51
2018-02-05T23:13:21.034Z,-0.50
2018-02-05T23:15:48.582Z,-0.49
2018-02-05T23:18:16.106Z,-0.50
2018-02-05T23:20:43.702Z,-0.50
2018-02-05T23:23:11.295Z,-0.50
2018-02-05T23:25:38.844Z,-0.50
2018-02-05T23:28:06.443Z,-0.49
2018-02-05T23:30:34.120Z,-0.46
2018-02-05T23:33:01.686Z,-0.49
2018-02-05T23:35:29.251Z,-0.49
2018-02-05T23:37:56.852Z,-0.48
2018-02-05T23:40:24.476Z,-0.49
2018-02-05T23:42:52.502Z,-0.49
2018-02-05T23:45:20.068Z,-0.50
2018-02-05T23:47:47.624Z,-0.50
2018-02-05T23:50:15.282Z,-0.51
2018-02-05T23:52:42.822Z,-0.52
2018-02-05T23:55:10.411Z,-0.53
2018-02-05T23:57:37.999Z,-0.50
